Time;durP1;ratioP1;P1;durP2;ratioP2;P2;SDS_P1;SDS_P2;PMS_P1;PMS_P2;Temp;Humidity;BMP_temperature;BMP_pressure;BME280_temperature;BME280_humidity;BME280_pressure;Samples;Min_cycle;Max_cycle;Signal;HPM_P1;HPM_P2
2021/08/06 00:00:47;;;;;;;0.07;0.07;;;17.80;99.90;;;;;;5055273;28;20029;-90
2021/08/06 00:03:13;;;;;;;0.10;0.10;;;17.80;99.90;;;;;;5052856;28;20032;-91
2021/08/06 00:05:42;;;;;;;0.43;0.23;;;17.70;99.90;;;;;;5051001;28;20079;-90
2021/08/06 00:08:07;;;;;;;0.10;0.10;;;17.60;99.90;;;;;;5055316;28;20397;-90
2021/08/06 00:10:33;;;;;;;0.00;0.00;;;17.60;99.90;;;;;;5055684;28;20028;-91
2021/08/06 00:12:59;;;;;;;0.00;0.00;;;17.50;99.90;;;;;;5054022;28;20040;-90
2021/08/06 00:15:25;;;;;;;0.63;0.47;;;17.50;99.90;;;;;;5050285;28;20108;-90
2021/08/06 00:17:51;;;;;;;0.30;0.30;;;17.50;99.90;;;;;;5055340;28;20271;-91
2021/08/06 00:20:16;;;;;;;0.10;0.10;;;17.40;99.90;;;;;;5057748;28;20036;-92
2021/08/06 00:22:42;;;;;;;0.00;0.00;;;17.30;99.90;;;;;;5055260;28;20037;-91
2021/08/06 00:25:09;;;;;;;2.23;0.67;;;17.30;99.90;;;;;;5049304;28;20029;-91
2021/08/06 00:27:34;;;;;;;0.10;0.10;;;17.30;99.90;;;;;;5054362;28;20112;-91
2021/08/06 00:30:00;;;;;;;0.20;0.20;;;17.20;99.90;;;;;;5060103;28;20032;-91
2021/08/06 00:32:26;;;;;;;0.10;0.10;;;17.20;99.90;;;;;;5053999;28;20416;-91
2021/08/06 00:34:52;;;;;;;1.23;1.03;;;17.10;99.90;;;;;;5057801;28;20462;-91
2021/08/06 00:37:18;;;;;;;1.60;0.93;;;17.10;99.90;;;;;;5060567;28;20397;-91
2021/08/06 00:39:43;;;;;;;0.10;0.10;;;17.10;99.90;;;;;;5061871;28;20021;-91
2021/08/06 00:42:09;;;;;;;0.07;0.07;;;17.00;99.90;;;;;;5053620;28;20053;-90
2021/08/06 00:44:36;;;;;;;0.37;0.37;;;17.10;99.90;;;;;;5064860;28;20455;-91
2021/08/06 00:47:02;;;;;;;;;;;17.00;99.90;;;;;;5065145;28;20029;-90
2021/08/06 00:49:28;;;;;;;0.30;0.30;;;17.00;99.90;;;;;;5057137;28;20262;-91
2021/08/06 00:51:54;;;;;;;0.00;0.00;;;17.00;99.90;;;;;;5055889;28;20097;-91
2021/08/06 00:54:20;;;;;;;0.37;0.37;;;16.90;99.90;;;;;;5057996;28;20353;-91
2021/08/06 00:56:49;;;;;;;0.00;0.00;;;16.90;99.90;;;;;;5055950;28;20056;-91
2021/08/06 00:59:16;;;;;;;0.00;0.00;;;16.90;99.90;;;;;;5052629;28;20685;-90
2021/08/06 01:01:48;;;;;;;0.10;0.10;;;16.80;99.90;;;;;;5064098;28;20769;-91
2021/08/06 01:04:25;;;;;;;16.00;0.52;;;16.80;99.90;;;;;;5060089;28;20040;-91
2021/08/06 01:07:06;;;;;;;0.10;0.10;;;16.80;99.90;;;;;;5058848;28;20499;-90
2021/08/06 01:09:45;;;;;;;0.10;0.10;;;16.80;99.90;;;;;;5053276;28;20029;-91
2021/08/06 01:12:22;;;;;;;0.43;0.43;;;16.70;99.90;;;;;;5058928;28;20587;-91
2021/08/06 01:14:50;;;;;;;0.10;0.10;;;16.60;99.90;;;;;;5055505;28;20472;-90
2021/08/06 01:17:17;;;;;;;0.10;0.10;;;16.60;99.90;;;;;;5056113;28;20128;-91
2021/08/06 01:19:52;;;;;;;;;;;16.70;99.90;;;;;;5057750;28;20037;-90
2021/08/06 01:22:24;;;;;;;0.00;0.00;;;16.80;99.90;;;;;;5055319;28;19966;-90
2021/08/06 01:25:07;;;;;;;0.30;0.30;;;16.80;99.90;;;;;;5056466;28;20060;-89
2021/08/06 01:27:35;;;;;;;1.27;0.63;;;16.80;99.90;;;;;;5053089;28;20552;-89
2021/08/06 01:30:04;;;;;;;0.00;0.00;;;16.80;99.90;;;;;;5064215;28;20106;-90
2021/08/06 01:32:31;;;;;;;0.00;0.00;;;16.80;99.90;;;;;;5057521;28;20063;-90
2021/08/06 01:34:57;;;;;;;;;;;16.80;99.90;;;;;;5058419;28;20029;-90
2021/08/06 01:37:23;;;;;;;0.22;0.20;;;16.70;99.90;;;;;;5055567;28;19909;-90
2021/08/06 01:39:49;;;;;;;0.40;0.40;;;16.70;99.90;;;;;;5058457;28;20048;-90
2021/08/06 01:42:42;;;;;;;0.00;0.00;;;16.70;99.90;;;;;;5060690;28;20041;-90
2021/08/06 01:45:13;;;;;;;0.10;0.10;;;16.70;99.90;;;;;;5055759;28;20086;-90
2021/08/06 01:47:42;;;;;;;0.10;0.10;;;16.60;99.90;;;;;;5039821;28;20033;-90
2021/08/06 01:50:14;;;;;;;0.08;0.08;;;16.60;99.90;;;;;;5051057;28;20037;-90
2021/08/06 01:52:54;;;;;;;0.40;0.40;;;16.70;99.90;;;;;;5064220;28;20060;-90
2021/08/06 01:55:21;;;;;;;0.10;0.10;;;16.60;99.90;;;;;;5055985;28;20040;-90
2021/08/06 01:57:48;;;;;;;0.10;0.10;;;16.60;99.90;;;;;;5039306;28;20021;-91
2021/08/06 02:00:15;;;;;;;0.10;0.10;;;16.60;99.90;;;;;;5056383;28;20086;-90
2021/08/06 02:02:41;;;;;;;0.20;0.20;;;16.60;99.90;;;;;;5063343;28;20036;-90
2021/08/06 02:05:10;;;;;;;0.20;0.20;;;16.60;99.90;;;;;;5035293;28;20493;-89
2021/08/06 02:07:36;;;;;;;0.10;0.10;;;16.50;99.90;;;;;;5044879;28;20024;-90
2021/08/06 02:10:04;;;;;;;1.98;0.77;;;16.50;99.90;;;;;;5060404;28;20043;-91
2021/08/06 02:12:29;;;;;;;0.40;0.40;;;16.50;99.90;;;;;;5059868;28;20025;-91
2021/08/06 02:14:55;;;;;;;0.00;0.00;;;16.50;99.90;;;;;;5044963;28;20672;-90
2021/08/06 02:17:22;;;;;;;0.13;0.13;;;16.40;99.90;;;;;;5055006;28;20077;-91
2021/08/06 02:19:49;;;;;;;0.05;0.05;;;16.40;99.90;;;;;;5042364;28;20437;-91
2021/08/06 02:22:17;;;;;;;0.45;0.45;;;16.40;99.90;;;;;;5052214;28;20033;-92
2021/08/06 02:24:44;;;;;;;0.20;0.20;;;16.30;99.90;;;;;;5061576;28;20444;-92
2021/08/06 02:27:16;;;;;;;0.93;0.55;;;16.30;99.90;;;;;;5061398;28;20107;-91
2021/08/06 02:29:44;;;;;;;0.20;0.20;;;16.40;99.90;;;;;;5062724;28;20119;-91
2021/08/06 02:32:10;;;;;;;0.10;0.10;;;16.40;99.90;;;;;;5059863;28;20028;-91
2021/08/06 02:34:37;;;;;;;0.10;0.10;;;16.40;99.90;;;;;;5056955;28;20526;-91
2021/08/06 02:37:04;;;;;;;0.00;0.00;;;16.40;99.90;;;;;;5051380;28;20405;-91
2021/08/06 02:39:31;;;;;;;0.63;0.57;;;16.20;99.90;;;;;;5054955;28;20029;-91
2021/08/06 02:41:59;;;;;;;0.20;0.20;;;16.20;99.90;;;;;;5056613;28;20029;-91
2021/08/06 02:44:26;;;;;;;1.45;0.73;;;16.10;99.90;;;;;;5065018;28;20939;-91
2021/08/06 02:46:52;;;;;;;0.00;0.00;;;16.10;99.90;;;;;;5058047;28;20025;-91
2021/08/06 02:49:17;;;;;;;0.10;0.10;;;16.10;99.90;;;;;;5062188;28;20035;-92
2021/08/06 02:51:43;;;;;;;0.00;0.00;;;16.10;99.90;;;;;;5056133;28;20262;-91
2021/08/06 02:54:09;;;;;;;0.03;0.03;;;16.20;99.90;;;;;;5059727;28;20070;-91
2021/08/06 02:56:35;;;;;;;0.03;0.03;;;16.20;99.90;;;;;;5058767;28;20082;-90
2021/08/06 02:59:01;;;;;;;0.10;0.10;;;16.30;99.90;;;;;;5059152;28;20163;-91
2021/08/06 03:01:27;;;;;;;0.00;0.00;;;16.30;99.90;;;;;;5059543;28;20104;-92
2021/08/06 03:03:53;;;;;;;0.00;0.00;;;16.40;99.90;;;;;;5060121;28;20534;-91
2021/08/06 03:06:18;;;;;;;0.10;0.10;;;16.40;99.90;;;;;;5050427;28;20057;-91
2021/08/06 03:08:44;;;;;;;0.07;0.07;;;16.40;99.90;;;;;;5061325;28;20016;-91
2021/08/06 03:11:10;;;;;;;0.00;0.00;;;16.30;99.90;;;;;;5057905;28;20515;-90
2021/08/06 03:13:36;;;;;;;0.20;0.20;;;16.40;99.90;;;;;;5055094;28;20418;-91
2021/08/06 03:16:02;;;;;;;1.40;0.40;;;16.40;99.90;;;;;;5063852;28;20056;-91
2021/08/06 03:18:27;;;;;;;0.53;0.33;;;16.30;99.90;;;;;;5057814;28;20029;-90
2021/08/06 03:20:55;;;;;;;0.30;0.30;;;16.30;99.90;;;;;;5061284;28;20078;-91
2021/08/06 03:23:21;;;;;;;2.90;0.45;;;16.30;99.90;;;;;;5053620;28;20115;-90
2021/08/06 03:25:47;;;;;;;0.00;0.00;;;16.40;99.90;;;;;;5058303;28;20063;-90
2021/08/06 03:28:12;;;;;;;0.10;0.10;;;16.30;99.90;;;;;;5055743;28;20056;-90
2021/08/06 03:30:38;;;;;;;0.00;0.00;;;16.30;99.90;;;;;;5054508;28;20042;-90
2021/08/06 03:33:04;;;;;;;1.30;1.00;;;16.30;99.90;;;;;;5053453;28;20037;-90
2021/08/06 03:35:30;;;;;;;0.00;0.00;;;16.30;99.90;;;;;;5057666;28;20368;-90
2021/08/06 03:37:56;;;;;;;0.10;0.10;;;16.30;99.90;;;;;;5056255;28;20028;-89
2021/08/06 03:40:21;;;;;;;0.57;0.53;;;16.30;99.90;;;;;;5058969;28;20037;-90
2021/08/06 03:42:47;;;;;;;0.37;0.30;;;16.40;99.90;;;;;;5053453;28;20049;-91
2021/08/06 03:45:13;;;;;;;0.00;0.00;;;16.40;99.90;;;;;;5056387;28;20557;-90
2021/08/06 03:47:39;;;;;;;0.00;0.00;;;16.50;99.90;;;;;;5057929;28;20021;-89
2021/08/06 03:50:06;;;;;;;0.00;0.00;;;16.50;99.90;;;;;;5060387;28;20413;-90
2021/08/06 03:52:32;;;;;;;0.10;0.10;;;16.50;99.90;;;;;;5061652;28;20030;-91
2021/08/06 03:54:58;;;;;;;0.00;0.00;;;16.50;99.90;;;;;;5055012;28;20039;-90
2021/08/06 03:57:23;;;;;;;0.50;0.40;;;16.50;99.90;;;;;;5055491;28;20086;-89
2021/08/06 03:59:49;;;;;;;0.40;0.40;;;16.40;99.90;;;;;;5057531;28;20029;-91
2021/08/06 04:02:15;;;;;;;0.70;0.70;;;16.40;99.90;;;;;;5065249;28;20509;-89
2021/08/06 04:04:41;;;;;;;0.00;0.00;;;16.40;99.90;;;;;;5052135;28;20023;-89
2021/08/06 04:07:07;;;;;;;0.40;0.40;;;16.30;99.90;;;;;;5057032;28;20029;-89
2021/08/06 04:09:32;;;;;;;0.00;0.00;;;16.30;99.90;;;;;;5063327;28;20116;-88
2021/08/06 04:11:58;;;;;;;0.00;0.00;;;16.30;99.90;;;;;;5061358;28;20092;-89
2021/08/06 04:14:24;;;;;;;0.10;0.10;;;16.30;99.90;;;;;;5064081;28;20020;-87
2021/08/06 04:16:50;;;;;;;0.00;0.00;;;16.30;99.90;;;;;;5064984;28;20028;-89
2021/08/06 04:19:16;;;;;;;0.63;0.47;;;16.20;99.90;;;;;;5062876;28;20021;-88
2021/08/06 04:21:42;;;;;;;0.45;0.45;;;16.20;99.90;;;;;;5062025;28;20023;-88
2021/08/06 04:24:07;;;;;;;0.03;0.03;;;16.20;99.90;;;;;;5059921;28;20028;-87
2021/08/06 04:26:35;;;;;;;0.00;0.00;;;16.20;99.90;;;;;;5057301;28;20025;-88
2021/08/06 04:29:02;;;;;;;0.10;0.10;;;16.20;99.90;;;;;;5044329;28;20029;-88
2021/08/06 04:31:28;;;;;;;0.10;0.10;;;16.10;99.90;;;;;;5059430;28;20099;-88
2021/08/06 04:33:54;;;;;;;0.05;0.05;;;16.10;99.90;;;;;;5058496;28;20116;-88
2021/08/06 04:36:21;;;;;;;0.22;0.22;;;16.10;99.90;;;;;;5062263;28;20066;-88
2021/08/06 04:38:47;;;;;;;0.00;0.00;;;16.20;99.90;;;;;;5059168;28;20032;-88
2021/08/06 04:41:14;;;;;;;0.88;0.75;;;16.20;99.90;;;;;;5053211;28;20387;-88
2021/08/06 04:43:40;;;;;;;0.25;0.25;;;16.20;99.90;;;;;;5058013;28;20049;-88
2021/08/06 04:46:07;;;;;;;0.52;0.52;;;16.30;99.90;;;;;;5060361;28;20032;-88
2021/08/06 04:48:34;;;;;;;0.25;0.17;;;16.30;99.90;;;;;;5058137;28;20039;-88
2021/08/06 04:51:00;;;;;;;;;;;16.20;99.90;;;;;;5059160;28;20033;-88
2021/08/06 04:53:33;;;;;;;0.00;0.00;;;16.20;99.90;;;;;;5053029;28;19913;-87
2021/08/06 04:56:09;;;;;;;0.10;0.10;;;16.20;99.90;;;;;;5067499;28;20044;-88
2021/08/06 04:58:36;;;;;;;0.00;0.00;;;16.30;99.90;;;;;;5061407;28;20505;-87
2021/08/06 05:01:02;;;;;;;;;;;16.30;99.90;;;;;;5058392;28;20090;-87
2021/08/06 05:03:28;;;;;;;0.00;0.00;;;16.30;99.90;;;;;;5052440;28;19915;-88
2021/08/06 05:05:55;;;;;;;0.60;0.45;;;16.30;99.90;;;;;;5058520;28;20098;-88
2021/08/06 05:08:21;;;;;;;;;;;16.40;99.90;;;;;;5062347;28;20127;-88
2021/08/06 05:10:47;;;;;;;0.13;0.13;;;16.40;99.90;;;;;;5058678;28;19908;-86
2021/08/06 05:13:14;;;;;;;1.17;1.08;;;16.40;99.90;;;;;;5054388;28;20105;-88
2021/08/06 05:15:41;;;;;;;0.10;0.10;;;16.40;99.90;;;;;;5055401;28;20040;-88
2021/08/06 05:18:06;;;;;;;0.45;0.45;;;16.40;99.90;;;;;;5060011;28;20028;-88
2021/08/06 05:20:33;;;;;;;0.97;0.53;;;16.40;99.90;;;;;;5054723;28;20079;-87
2021/08/06 05:22:59;;;;;;;0.35;0.35;;;16.50;99.90;;;;;;5067459;28;20448;-87
2021/08/06 05:25:25;;;;;;;0.70;0.47;;;16.50;99.90;;;;;;5053075;28;20064;-87
2021/08/06 05:27:50;;;;;;;0.00;0.00;;;16.50;99.90;;;;;;5053117;28;20123;-87
2021/08/06 05:30:20;;;;;;;0.50;0.50;;;16.50;99.90;;;;;;5058178;28;20727;-86
2021/08/06 05:32:47;;;;;;;0.00;0.00;;;16.60;99.90;;;;;;5065082;28;20017;-87
2021/08/06 05:35:12;;;;;;;0.10;0.10;;;16.60;99.90;;;;;;5059585;28;20050;-87
2021/08/06 05:37:38;;;;;;;0.10;0.10;;;16.70;99.90;;;;;;5054851;28;20069;-89
2021/08/06 05:40:05;;;;;;;0.00;0.00;;;16.70;99.90;;;;;;5055615;28;20094;-88
2021/08/06 05:42:31;;;;;;;0.65;0.63;;;16.80;99.90;;;;;;5057627;28;20056;-88
2021/08/06 05:44:56;;;;;;;0.30;0.30;;;16.80;99.90;;;;;;5056048;28;20616;-88
2021/08/06 05:47:22;;;;;;;0.10;0.10;;;16.90;99.90;;;;;;5060850;28;20020;-87
2021/08/06 05:49:48;;;;;;;0.10;0.10;;;17.00;99.90;;;;;;5056167;28;20655;-88
2021/08/06 05:52:14;;;;;;;0.30;0.30;;;17.00;99.90;;;;;;5061119;28;20560;-83
2021/08/06 05:54:39;;;;;;;0.10;0.10;;;17.00;99.90;;;;;;5068095;28;20024;-83
2021/08/06 05:57:05;;;;;;;0.77;0.73;;;17.10;99.90;;;;;;5052869;28;20052;-82
2021/08/06 05:59:31;;;;;;;0.10;0.10;;;17.20;99.90;;;;;;5053878;28;20032;-82
2021/08/06 06:01:57;;;;;;;1.50;0.73;;;17.20;99.90;;;;;;5056272;28;20040;-82
2021/08/06 06:04:22;;;;;;;0.43;0.43;;;17.40;99.90;;;;;;5061599;28;20453;-80
2021/08/06 06:06:48;;;;;;;1.40;0.83;;;17.40;99.90;;;;;;5055309;28;20048;-82
2021/08/06 06:09:14;;;;;;;0.47;0.47;;;17.40;99.90;;;;;;5063091;28;20028;-84
2021/08/06 06:11:40;;;;;;;0.30;0.30;;;17.50;99.90;;;;;;5062590;28;20460;-85
2021/08/06 06:14:06;;;;;;;0.20;0.20;;;17.70;99.90;;;;;;5063691;28;20100;-78
2021/08/06 06:16:32;;;;;;;0.28;0.28;;;17.70;99.90;;;;;;5049619;28;20039;-78
2021/08/06 06:18:58;;;;;;;0.00;0.00;;;17.70;99.90;;;;;;5048659;28;20037;-82
2021/08/06 06:21:24;;;;;;;0.10;0.10;;;17.70;99.90;;;;;;5056098;28;20021;-92
2021/08/06 06:23:50;;;;;;;0.10;0.10;;;17.70;99.90;;;;;;5054483;28;20517;-85
2021/08/06 06:26:16;;;;;;;0.40;0.40;;;17.80;99.90;;;;;;5051860;28;20137;-83
2021/08/06 06:28:41;;;;;;;0.33;0.20;;;17.90;99.90;;;;;;5062120;28;20127;-82
2021/08/06 06:31:07;;;;;;;0.10;0.10;;;18.00;99.90;;;;;;5056072;28;20039;-83
2021/08/06 06:33:33;;;;;;;0.30;0.30;;;18.20;99.90;;;;;;5067112;28;20029;-84
2021/08/06 06:35:59;;;;;;;0.30;0.30;;;18.20;99.90;;;;;;5056845;28;20051;-84
2021/08/06 06:38:25;;;;;;;0.10;0.10;;;18.30;99.90;;;;;;5055619;28;20490;-83
2021/08/06 06:40:51;;;;;;;0.10;0.10;;;18.50;99.90;;;;;;5062414;28;20029;-83
2021/08/06 06:43:17;;;;;;;2.55;1.50;;;18.60;99.90;;;;;;5055710;28;20135;-82
2021/08/06 06:45:43;;;;;;;0.00;0.00;;;18.20;99.90;;;;;;5057710;28;20703;-83
2021/08/06 06:48:09;;;;;;;0.40;0.40;;;18.60;99.90;;;;;;5054443;28;20024;-83
2021/08/06 06:50:35;;;;;;;0.00;0.00;;;19.20;99.90;;;;;;5054582;28;20099;-82
2021/08/06 06:53:01;;;;;;;0.00;0.00;;;19.40;99.90;;;;;;5065475;28;20036;-81
2021/08/06 06:55:27;;;;;;;0.10;0.10;;;19.70;99.90;;;;;;5066750;28;20024;-81
2021/08/06 06:57:58;;;;;;;1.60;0.30;;;20.00;99.90;;;;;;5066889;28;20401;-82
2021/08/06 07:00:28;;;;;;;0.90;0.40;;;20.50;99.90;;;;;;5054943;28;20604;-83
2021/08/06 07:02:55;;;;;;;0.30;0.30;;;20.60;99.90;;;;;;5068287;28;20024;-83
2021/08/06 07:05:21;;;;;;;0.10;0.10;;;19.90;99.90;;;;;;5054232;28;20033;-82
2021/08/06 07:07:47;;;;;;;;;;;19.80;99.90;;;;;;5048801;28;20076;-82
2021/08/06 07:10:13;;;;;;;2.92;1.13;;;19.70;99.90;;;;;;5052308;28;20325;-82
2021/08/06 07:12:40;;;;;;;0.30;0.30;;;19.70;99.90;;;;;;5058984;28;20033;-82
2021/08/06 07:15:08;;;;;;;1.35;0.55;;;20.30;99.90;;;;;;5067185;28;20036;-81
2021/08/06 07:17:36;;;;;;;0.00;0.00;;;20.10;99.90;;;;;;5057373;28;20025;-81
2021/08/06 10:45:48;;;;;;;0.20;0.20;;;28.70;90.90;;;;;;5390445;23;20053;-86
2021/08/06 10:48:33;;;;;;;0.22;0.00;;;29.90;85.80;;;;;;4955634;28;20146;-88
2021/08/06 10:51:18;;;;;;;0.00;0.00;;;31.00;84.30;;;;;;4952338;28;20417;-87
2021/08/06 10:53:45;;;;;;;0.00;0.00;;;31.10;78.90;;;;;;4952928;28;20031;-87
2021/08/06 10:56:21;;;;;;;;;;;29.90;83.60;;;;;;4956733;28;20826;-84
2021/08/06 10:58:50;;;;;;;0.28;0.28;;;28.90;84.60;;;;;;4966191;28;19914;-83
2021/08/06 11:01:30;;;;;;;0.75;0.28;;;28.20;86.30;;;;;;4958325;28;20127;-86
2021/08/06 11:04:04;;;;;;;0.00;0.00;;;28.60;87.70;;;;;;4956637;28;20069;-86
2021/08/06 11:06:47;;;;;;;0.00;0.00;;;30.30;91.20;;;;;;4962242;28;20035;-86
2021/08/06 11:09:25;;;;;;;3.53;0.20;;;30.50;86.00;;;;;;4960040;28;20031;-86
2021/08/06 11:12:11;;;;;;;0.20;0.20;;;29.40;84.10;;;;;;4959061;28;20034;-85
2021/08/06 11:14:39;;;;;;;;;;;27.90;87.10;;;;;;4957579;28;20486;-87
2021/08/06 11:17:15;;;;;;;0.00;0.00;;;26.60;90.90;;;;;;4960455;28;20854;-87
2021/08/06 11:19:48;;;;;;;0.10;0.10;;;25.90;90.80;;;;;;4952269;28;20042;-85
2021/08/06 11:22:17;;;;;;;0.00;0.00;;;25.20;93.20;;;;;;4956951;28;20117;-85
2021/08/06 11:24:45;;;;;;;0.00;0.00;;;25.70;92.00;;;;;;4955342;28;20088;-84
2021/08/06 11:27:13;;;;;;;0.30;0.30;;;27.10;90.60;;;;;;4952390;28;20032;-86
2021/08/06 11:29:41;;;;;;;1.25;0.20;;;27.10;90.70;;;;;;4955095;28;20533;-86
2021/08/06 11:32:14;;;;;;;0.00;0.00;;;25.80;91.40;;;;;;4956844;28;20637;-87
2021/08/06 11:34:53;;;;;;;0.80;0.45;;;25.10;92.10;;;;;;4957685;28;20034;-84
2021/08/06 11:37:19;;;;;;;0.00;0.00;;;24.20;93.50;;;;;;4953038;28;20022;-84
2021/08/06 11:40:10;;;;;;;0.10;0.10;;;23.80;94.20;;;;;;4958551;28;20945;-86
2021/08/06 11:42:39;;;;;;;0.00;0.00;;;23.20;95.00;;;;;;4953024;28;20525;-85
2021/08/06 11:45:11;;;;;;;0.10;0.10;;;23.10;95.90;;;;;;4958136;28;20042;-85
2021/08/06 11:47:44;;;;;;;1.73;0.52;;;23.00;96.00;;;;;;4958390;28;20582;-86
2021/08/06 11:50:15;;;;;;;0.10;0.00;;;22.90;96.20;;;;;;4956102;28;20119;-85
2021/08/06 11:52:44;;;;;;;0.17;0.17;;;22.50;97.40;;;;;;4959161;28;20039;-86
2021/08/06 11:55:13;;;;;;;0.00;0.00;;;22.30;98.80;;;;;;4955343;28;20923;-87
2021/08/06 11:57:52;;;;;;;0.00;0.00;;;22.10;98.50;;;;;;4956532;28;20138;-84
2021/08/06 12:00:27;;;;;;;0.30;0.10;;;22.40;98.50;;;;;;4958487;28;20505;-84
2021/08/06 12:03:02;;;;;;;0.00;0.00;;;22.60;98.50;;;;;;4957422;28;20049;-84
2021/08/06 12:05:29;;;;;;;0.08;0.08;;;22.90;98.00;;;;;;4956301;28;20062;-83
2021/08/06 12:07:54;;;;;;;0.00;0.00;;;23.00;98.00;;;;;;4956344;28;20843;-85
2021/08/06 12:10:27;;;;;;;0.10;0.10;;;23.30;96.50;;;;;;4954492;28;20134;-85
2021/08/06 12:12:54;;;;;;;0.00;0.00;;;24.00;96.20;;;;;;4957767;28;20027;-83
2021/08/06 12:15:20;;;;;;;;;;;24.50;95.10;;;;;;4958365;28;20489;-83
2021/08/06 12:17:46;;;;;;;0.00;0.00;;;24.90;93.90;;;;;;4956145;28;20641;-83
2021/08/06 12:20:12;;;;;;;1.88;0.88;;;25.70;92.60;;;;;;4959557;28;20027;-84
2021/08/06 12:22:41;;;;;;;0.00;0.00;;;26.40;91.20;;;;;;4955432;28;20043;-83
2021/08/06 12:25:13;;;;;;;0.10;0.10;;;25.30;90.40;;;;;;4956704;28;20023;-83
2021/08/06 12:27:39;;;;;;;0.00;0.00;;;23.70;92.60;;;;;;4954894;28;20033;-84
2021/08/06 12:30:29;;;;;;;0.00;0.00;;;24.60;92.70;;;;;;4957694;28;20032;-84
2021/08/06 12:32:54;;;;;;;1.42;0.20;;;25.50;91.10;;;;;;4960478;28;20050;-86
2021/08/06 12:35:24;;;;;;;1.25;0.30;;;25.70;91.10;;;;;;4959653;28;20261;-86
2021/08/06 12:37:51;;;;;;;0.52;0.52;;;24.70;91.20;;;;;;4960272;28;20034;-91
2021/08/06 12:40:18;;;;;;;0.03;0.03;;;23.70;92.90;;;;;;4958934;28;20023;-86
2021/08/06 12:42:43;;;;;;;;;;;23.70;93.00;;;;;;4961346;28;20129;-79
2021/08/06 12:45:19;;;;;;;;;;;23.60;92.90;;;;;;4964449;28;20369;-82
2021/08/06 12:47:55;;;;;;;0.22;0.22;;;23.50;93.00;;;;;;4959279;28;19918;-84
2021/08/06 12:50:31;;;;;;;0.43;0.43;;;24.40;93.40;;;;;;4959355;28;20159;-92
2021/08/06 12:53:05;;;;;;;0.00;0.00;;;25.30;91.90;;;;;;4960409;28;20042;-89
2021/08/06 12:55:31;;;;;;;0.10;0.00;;;25.00;91.00;;;;;;4960190;28;20028;-89
2021/08/06 12:58:10;;;;;;;0.08;0.08;;;25.40;91.00;;;;;;4955020;28;20159;-88
2021/08/06 13:00:44;;;;;;;0.00;0.00;;;25.30;90.80;;;;;;4959930;28;20047;-88
2021/08/06 13:03:18;;;;;;;0.05;0.05;;;24.90;91.40;;;;;;4961452;28;20531;-88
2021/08/06 13:05:50;;;;;;;0.00;0.00;;;24.80;92.70;;;;;;4958514;28;20061;-90
2021/08/06 13:08:20;;;;;;;0.10;0.10;;;24.00;92.50;;;;;;4960356;28;20564;-89
2021/08/06 13:10:53;;;;;;;0.03;0.03;;;24.10;93.80;;;;;;4962652;28;20059;-88
2021/08/06 13:13:26;;;;;;;1.10;0.65;;;24.30;91.80;;;;;;4956814;28;20034;-89
2021/08/06 13:15:51;;;;;;;0.10;0.10;;;24.20;92.70;;;;;;4958330;28;20089;-88
2021/08/06 13:18:17;;;;;;;0.00;0.00;;;24.90;92.30;;;;;;4957587;28;20501;-87
2021/08/06 13:20:43;;;;;;;0.10;0.10;;;25.60;91.70;;;;;;4958384;28;20034;-86
2021/08/06 13:23:10;;;;;;;0.10;0.10;;;25.30;91.30;;;;;;4959412;28;20089;-85
2021/08/06 13:25:37;;;;;;;0.05;0.05;;;24.20;93.10;;;;;;4956183;28;20432;-86
2021/08/06 13:28:04;;;;;;;0.32;0.30;;;23.90;92.40;;;;;;4959328;28;20046;-87
2021/08/06 13:30:31;;;;;;;2.28;0.17;;;23.90;93.30;;;;;;4961575;28;20035;-86
2021/08/06 13:32:56;;;;;;;;;;;23.70;93.40;;;;;;4960332;28;20027;-86
2021/08/06 13:35:22;;;;;;;0.10;0.03;;;23.30;93.70;;;;;;4954586;28;19933;-87
2021/08/06 13:37:48;;;;;;;0.00;0.00;;;23.20;94.00;;;;;;4960975;28;20073;-88
2021/08/06 13:40:13;;;;;;;0.00;0.00;;;23.00;93.30;;;;;;4960297;28;20326;-89
2021/08/06 13:42:39;;;;;;;0.00;0.00;;;22.80;93.30;;;;;;4957668;28;20573;-88
2021/08/06 13:45:05;;;;;;;0.00;0.00;;;23.10;93.00;;;;;;4961670;28;20095;-88
2021/08/06 13:47:31;;;;;;;0.00;0.00;;;23.70;92.40;;;;;;4961846;28;20470;-88
2021/08/06 13:49:57;;;;;;;0.00;0.00;;;23.80;92.50;;;;;;4960535;28;20592;-88
2021/08/06 13:52:22;;;;;;;0.87;0.57;;;23.60;92.90;;;;;;4961498;28;20027;-88
2021/08/06 13:54:48;;;;;;;0.20;0.20;;;24.10;93.20;;;;;;4953405;28;20114;-88
2021/08/06 13:57:14;;;;;;;0.10;0.10;;;24.90;91.40;;;;;;4961146;28;20031;-89
2021/08/06 13:59:39;;;;;;;0.93;0.20;;;25.10;91.30;;;;;;4959419;28;20397;-88
2021/08/06 14:02:05;;;;;;;0.00;0.00;;;25.00;91.50;;;;;;4958728;28;20026;-88
2021/08/06 14:04:31;;;;;;;0.23;0.13;;;25.20;90.30;;;;;;4958447;28;20294;-87
2021/08/06 14:06:58;;;;;;;0.25;0.15;;;25.10;91.10;;;;;;4955793;28;20093;-88
2021/08/06 14:09:24;;;;;;;1.30;0.28;;;24.70;91.20;;;;;;4955849;28;20047;-88
2021/08/06 14:11:51;;;;;;;0.28;0.28;;;25.00;90.90;;;;;;4957987;28;20026;-87
2021/08/06 14:14:17;;;;;;;4.38;0.40;;;24.90;90.80;;;;;;4960702;28;20062;-88
2021/08/06 14:16:42;;;;;;;0.00;0.00;;;25.00;90.60;;;;;;4956915;28;20034;-88
2021/08/06 14:19:08;;;;;;;0.10;0.10;;;24.80;90.70;;;;;;4955136;28;20047;-88
2021/08/06 14:21:34;;;;;;;0.00;0.00;;;24.80;91.50;;;;;;4960131;28;20073;-88
2021/08/06 14:24:00;;;;;;;0.00;0.00;;;23.90;92.30;;;;;;4959603;28;20078;-88
2021/08/06 14:26:26;;;;;;;0.65;0.17;;;23.40;92.40;;;;;;4960630;28;20452;-87
2021/08/06 14:28:52;;;;;;;0.08;0.08;;;23.30;93.30;;;;;;4957727;28;20035;-87
2021/08/06 14:31:18;;;;;;;0.20;0.20;;;23.60;92.90;;;;;;4956894;28;20118;-88
2021/08/06 14:33:44;;;;;;;0.10;0.10;;;24.00;92.40;;;;;;4958693;28;20039;-88
2021/08/06 14:36:11;;;;;;;0.00;0.00;;;23.90;92.30;;;;;;4962154;28;20709;-87
2021/08/06 14:38:37;;;;;;;0.08;0.08;;;23.60;91.40;;;;;;4958638;28;20047;-88
2021/08/06 14:41:04;;;;;;;0.00;0.00;;;23.20;91.40;;;;;;4961253;28;20441;-88
2021/08/06 14:43:30;;;;;;;;;;;22.80;93.70;;;;;;4955296;28;20057;-89
2021/08/06 14:45:55;;;;;;;0.00;0.00;;;22.50;94.40;;;;;;4960285;28;20741;-88
2021/08/06 14:48:21;;;;;;;0.00;0.00;;;22.30;94.10;;;;;;4964225;28;20726;-88
2021/08/06 14:50:47;;;;;;;0.23;0.10;;;22.50;94.60;;;;;;4961597;28;20280;-87
2021/08/06 14:53:12;;;;;;;0.00;0.00;;;22.70;93.60;;;;;;4961648;28;20049;-87
2021/08/06 14:55:38;;;;;;;0.00;0.00;;;23.00;94.10;;;;;;4963431;28;20761;-87
2021/08/06 14:58:04;;;;;;;0.40;0.30;;;23.30;92.80;;;;;;4946924;28;20027;-88
2021/08/06 15:00:30;;;;;;;8.18;0.32;;;23.50;93.00;;;;;;4964764;28;20031;-88
2021/08/06 15:02:56;;;;;;;0.10;0.10;;;23.20;93.50;;;;;;4961650;28;20050;-86
2021/08/06 15:05:22;;;;;;;0.17;0.17;;;23.40;93.10;;;;;;4956243;28;20385;-87
2021/08/06 15:07:50;;;;;;;0.10;0.10;;;23.10;92.90;;;;;;4959909;28;20038;-88
2021/08/06 15:10:16;;;;;;;0.47;0.47;;;23.10;92.50;;;;;;4954077;28;20042;-87
2021/08/06 15:12:41;;;;;;;0.63;0.63;;;22.90;93.00;;;;;;4964350;28;20034;-88
2021/08/06 15:15:08;;;;;;;0.00;0.00;;;23.00;92.90;;;;;;4958922;28;20039;-88
2021/08/06 15:17:34;;;;;;;0.50;0.22;;;23.00;93.00;;;;;;4960919;28;20026;-87
2021/08/06 15:20:00;;;;;;;0.15;0.15;;;22.80;92.20;;;;;;4960023;28;20154;-86
2021/08/06 15:22:26;;;;;;;0.00;0.00;;;22.70;92.90;;;;;;4961108;28;20118;-87
2021/08/06 15:24:53;;;;;;;0.00;0.00;;;22.70;93.70;;;;;;4955681;28;20039;-87
2021/08/06 15:27:20;;;;;;;2.08;0.85;;;22.50;93.60;;;;;;4959258;28;20275;-88
2021/08/06 15:29:46;;;;;;;0.60;0.40;;;22.10;94.40;;;;;;4959459;28;20039;-87
2021/08/06 15:32:13;;;;;;;0.20;0.20;;;21.90;94.70;;;;;;4956972;28;20049;-87
2021/08/06 15:34:39;;;;;;;0.00;0.00;;;22.10;94.40;;;;;;4955306;28;20048;-88
2021/08/06 15:37:05;;;;;;;0.00;0.00;;;22.40;94.00;;;;;;4949675;28;20035;-88
2021/08/06 15:39:31;;;;;;;0.00;0.00;;;22.40;93.50;;;;;;4959738;28;20030;-88
2021/08/06 15:41:57;;;;;;;0.17;0.17;;;22.70;94.30;;;;;;4961118;28;20035;-88
2021/08/06 15:44:22;;;;;;;0.73;0.73;;;22.90;93.50;;;;;;4954997;28;20047;-87
2021/08/06 15:46:49;;;;;;;0.00;0.00;;;23.10;94.20;;;;;;4954059;28;20090;-88
2021/08/06 15:49:15;;;;;;;;;;;23.40;93.70;;;;;;4956989;28;20500;-88
2021/08/06 15:51:41;;;;;;;3.13;1.05;;;23.40;92.90;;;;;;4957754;28;19921;-87
2021/08/06 15:54:07;;;;;;;0.00;0.00;;;22.90;93.40;;;;;;4956128;28;20027;-88
2021/08/06 15:56:33;;;;;;;0.35;0.08;;;22.80;93.70;;;;;;4958392;28;20037;-87
2021/08/06 15:58:58;;;;;;;0.50;0.33;;;23.00;93.50;;;;;;4955458;28;20042;-88
2021/08/06 16:01:24;;;;;;;0.00;0.00;;;23.00;93.00;;;;;;4957459;28;20037;-89
2021/08/06 16:03:51;;;;;;;0.00;0.00;;;22.90;93.50;;;;;;4955080;28;20772;-88
2021/08/06 16:06:17;;;;;;;;;;;22.60;94.10;;;;;;4955780;28;20797;-88
2021/08/06 16:08:42;;;;;;;0.30;0.28;;;22.20;93.60;;;;;;4966750;28;19956;-88
2021/08/06 16:11:09;;;;;;;0.00;0.00;;;21.90;94.50;;;;;;4962772;28;20146;-87
2021/08/06 16:13:36;;;;;;;0.13;0.00;;;21.90;94.70;;;;;;4958993;28;20528;-87
2021/08/06 16:16:02;;;;;;;0.22;0.22;;;21.80;95.30;;;;;;4959207;28;20032;-88
2021/08/06 16:18:28;;;;;;;0.03;0.03;;;21.70;95.30;;;;;;4961314;28;20038;-88